Latest Weather Observations for St Kilda Harbour RMYS

IDV60901

Issued at 2:21 am EST Wednesday 17 July 2019 (issued every 10 minutes, with the page automatically refreshed every 10 minutes)

About weather observations | Map of Melbourne area stations | Latest observations for Melbourne area | Other Formats
Station Details ID: 086220 Name: ST KILDA HARBOUR - RMYS Lat: -37.86 Lon: 144.96 Height: 6.4 m
Data from the previous 72 hours. | See also: Recent months at St Kilda Harbour RMYS
Date/Time
EST
Temp
°C
App
Temp
°C
Dew
Point
°C
Rel
Hum
%
Delta-T
°C
Wind Press
QNH
hPa
Press
MSL
hPa
Rain since
9am
mm
Dir  Spd
km/h
Gust
km/h
Spd
kts
Gust
kts
17/02:00am - - - - - W 26 35 14 19 - - -
17/01:30am - - - - - W 32 39 17 21 - - -
17/01:00am - - - - - WNW 22 30 12 16 - - -
17/12:30am - - - - - NW 20 26 11 14 - - -
17/12:00am - - - - - WNW 19 22 10 12 - - -
 
Date/Time
EST
Temp
°C
App
Temp
°C
Dew
Point
°C
Rel
Hum
%
Delta-T
°C
Wind Press
QNH
hPa
Press
MSL
hPa
Rain since
9am
mm
Dir  Spd
km/h
Gust
km/h
Spd
kts
Gust
kts
16/11:30pm - - - - - WNW 20 24 11 13 - - -
16/11:00pm - - - - - NW 20 24 11 13 - - -
16/10:30pm - - - - - NW 15 20 8 11 - - -
16/10:00pm - - - - - NW 17 20 9 11 - - -
16/09:30pm - - - - - WNW 22 28 12 15 - - -
16/09:00pm - - - - - W 22 26 12 14 - - -
16/08:30pm - - - - - W 24 30 13 16 - - -
16/08:00pm - - - - - WNW 22 28 12 15 - - -
16/07:30pm - - - - - WNW 22 26 12 14 - - -
16/07:00pm - - - - - W 26 33 14 18 - - -
16/06:30pm - - - - - W 24 32 13 17 - - -
16/06:00pm - - - - - W 20 24 11 13 - - -
16/05:30pm - - - - - W 22 30 12 16 - - -
16/05:00pm - - - - - W 24 30 13 16 - - -
16/04:30pm - - - - - W 24 35 13 19 - - -
16/04:00pm - - - - - W 28 33 15 18 - - -
16/03:30pm - - - - - W 24 32 13 17 - - -
16/03:00pm - - - - - W 24 32 13 17 - - -
16/02:30pm - - - - - W 24 32 13 17 - - -
16/02:00pm - - - - - WSW 33 43 18 23 - - -
16/01:30pm - - - - - WSW 30 35 16 19 - - -
16/01:00pm - - - - - WSW 32 39 17 21 - - -
16/12:30pm - - - - - WSW 33 41 18 22 - - -
16/12:00pm - - - - - WSW 28 33 15 18 - - -
16/11:30am - - - - - WSW 24 28 13 15 - - -
16/11:00am - - - - - WSW 28 35 15 19 - - -
16/10:30am - - - - - WSW 30 39 16 21 - - -
16/10:00am - - - - - WSW 28 37 15 20 - - -
16/09:30am - - - - - W 26 32 14 17 - - -
16/09:00am - - - - - WSW 26 32 14 17 - - -
16/08:30am - - - - - WSW 26 32 14 17 - - -
16/08:00am - - - - - WSW 26 33 14 18 - - -
16/07:30am - - - - - W 22 26 12 14 - - -
16/07:00am - - - - - NW 13 17 7 9 - - -
16/06:30am - - - - - W 19 22 10 12 - - -
16/06:00am - - - - - WSW 13 19 7 10 - - -
16/05:30am - - - - - WSW 19 24 10 13 - - -
16/05:00am - - - - - WSW 19 24 10 13 - - -
16/04:30am - - - - - W 13 17 7 9 - - -
16/04:00am - - - - - WSW 24 32 13 17 - - -
16/03:30am - - - - - WSW 24 33 13 18 - - -
16/03:00am - - - - - WSW 20 30 11 16 - - -
16/02:30am - - - - - WSW 19 24 10 13 - - -
16/02:00am - - - - - WSW 17 20 9 11 - - -
16/01:30am - - - - - WSW 13 17 7 9 - - -
16/01:00am - - - - - WSW 15 17 8 9 - - -
16/12:30am - - - - - WSW 20 26 11 14 - - -
16/12:00am - - - - - WSW 19 22 10 12 - - -
 
Date/Time
EST
Temp
°C
App
Temp
°C
Dew
Point
°C
Rel
Hum
%
Delta-T
°C
Wind Press
QNH
hPa
Press
MSL
hPa
Rain since
9am
mm
Dir  Spd
km/h
Gust
km/h
Spd
kts
Gust
kts
15/11:30pm - - - - - WSW 19 22 10 12 - - -
15/11:00pm - - - - - WSW 24 28 13 15 - - -
15/10:30pm - - - - - WSW 17 22 9 12 - - -
15/10:00pm - - - - - WSW 22 32 12 17 - - -
15/09:30pm - - - - - WSW 24 32 13 17 - - -
15/09:00pm - - - - - W 22 26 12 14 - - -
15/08:30pm - - - - - W 30 39 16 21 - - -
15/08:00pm - - - - - WSW 28 33 15 18 - - -
15/07:30pm - - - - - W 30 41 16 22 - - -
15/07:00pm - - - - - WSW 26 35 14 19 - - -
15/06:30pm - - - - - WSW 26 41 14 22 - - -
15/06:00pm - - - - - W 28 37 15 20 - - -
15/05:30pm - - - - - W 26 32 14 17 - - -
15/05:00pm - - - - - W 22 28 12 15 - - -
15/04:30pm - - - - - W 24 30 13 16 - - -
15/04:00pm - - - - - WSW 22 30 12 16 - - -
15/03:30pm - - - - - WSW 24 32 13 17 - - -
15/03:00pm - - - - - WSW 22 26 12 14 - - -
15/02:30pm - - - - - WSW 20 24 11 13 - - -
15/02:00pm - - - - - WSW 26 33 14 18 - - -
15/01:30pm - - - - - WSW 26 33 14 18 - - -
15/01:00pm - - - - - WSW 19 22 10 12 - - -
15/12:30pm - - - - - WSW 22 26 12 14 - - -
15/12:00pm - - - - - WSW 22 28 12 15 - - -
15/11:30am - - - - - WSW 24 28 13 15 - - -
15/11:00am - - - - - WSW 28 33 15 18 - - -
15/10:30am - - - - - WSW 24 28 13 15 - - -
15/10:00am - - - - - WSW 19 24 10 13 - - -
15/09:30am - - - - - WSW 32 37 17 20 - - -
15/09:00am - - - - - W 22 28 12 15 - - -
15/08:30am - - - - - WSW 22 28 12 15 - - -
15/08:00am - - - - - WSW 30 35 16 19 - - -
15/07:30am - - - - - WSW 32 37 17 20 - - -
15/07:00am - - - - - WSW 30 37 16 20 - - -
15/06:30am - - - - - WSW 30 35 16 19 - - -
15/06:00am - - - - - WSW 32 35 17 19 - - -
15/05:30am - - - - - WSW 33 39 18 21 - - -
15/05:00am - - - - - WSW 35 43 19 23 - - -
15/04:30am - - - - - WSW 35 41 19 22 - - -
15/04:00am - - - - - WSW 33 39 18 21 - - -
15/03:30am - - - - - WSW 32 39 17 21 - - -
15/03:00am - - - - - WSW 35 43 19 23 - - -
15/02:30am - - - - - WSW 39 48 21 26 - - -
15/02:00am - - - - - WSW 35 43 19 23 - - -
15/01:30am - - - - - WSW 35 43 19 23 - - -
15/01:00am - - - - - WSW 39 46 21 25 - - -
15/12:30am - - - - - WSW 43 52 23 28 - - -
15/12:00am - - - - - WSW 41 52 22 28 - - -
 
Date/Time
EST
Temp
°C
App
Temp
°C
Dew
Point
°C
Rel
Hum
%
Delta-T
°C
Wind Press
QNH
hPa
Press
MSL
hPa
Rain since
9am
mm
Dir  Spd
km/h
Gust
km/h
Spd
kts
Gust
kts
14/11:30pm - - - - - W 37 46 20 25 - - -
14/11:00pm - - - - - WSW 39 46 21 25 - - -
14/10:30pm - - - - - WSW 52 63 28 34 - - -
14/10:00pm - - - - - WSW 50 63 27 34 - - -
14/09:30pm - - - - - WSW 59 83 32 45 - - -
14/09:18pm - - - - - W 56 74 30 40 - - -
14/09:00pm - - - - - W 48 59 26 32 - - -
14/08:30pm - - - - - W 50 74 27 40 - - -
14/08:29pm - - - - - W 48 74 26 40 - - -
14/08:00pm - - - - - W 48 65 26 35 - - -
14/07:35pm - - - - - W 43 63 23 34 - - -
14/07:30pm - - - - - W 43 57 23 31 - - -
14/07:00pm - - - - - W 41 56 22 30 - - -
14/06:30pm - - - - - W 44 54 24 29 - - -
14/06:00pm - - - - - W 43 57 23 31 - - -
14/05:30pm - - - - - W 56 80 30 43 - - -
14/05:25pm - - - - - W 48 67 26 36 - - -
14/05:00pm - - - - - W 41 50 22 27 - - -
14/04:30pm - - - - - W 52 65 28 35 - - -
14/04:00pm - - - - - W 39 67 21 36 - - -
14/03:59pm - - - - - W 39 65 21 35 - - -
14/03:30pm - - - - - WSW 37 50 20 27 - - -
14/03:00pm - - - - - W 30 37 16 20 - - -
14/02:30pm - - - - - W 37 50 20 27 - - -
14/02:13pm - - - - - W 43 70 23 38 - - -
14/02:00pm - - - - - WNW 44 59 24 32 - - -
14/01:30pm - - - - - WNW 44 63 24 34 - - -
14/01:23pm - - - - - WNW 44 63 24 34 - - -
14/01:00pm - - - - - WNW 44 59 24 32 - - -
14/12:30pm - - - - - WNW 39 52 21 28 - - -
14/12:00pm - - - - - W 39 59 21 32 - - -
14/11:47am - - - - - WNW 32 54 17 29 - - -
14/11:30am - - - - - WNW 33 44 18 24 - - -
14/11:00am - - - - - NNW 28 37 15 20 - - -
14/10:30am - - - - - NNW 20 28 11 15 - - -
14/10:00am - - - - - NW 32 43 17 23 - - -
14/09:30am - - - - - NW 32 44 17 24 - - -
14/09:00am - - - - - NW 35 46 19 25 - - -
14/08:30am - - - - - NW 28 44 15 24 - - -
14/08:00am - - - - - NW 30 37 16 20 - - -
14/07:30am - - - - - NNW 22 33 12 18 - - -
14/07:00am - - - - - NNW 24 35 13 19 - - -
14/06:30am - - - - - NNW 24 33 13 18 - - -
14/06:00am - - - - - NNW 20 28 11 15 - - -
14/05:30am - - - - - NW 28 35 15 19 - - -
14/05:00am - - - - - NW 24 37 13 20 - - -
14/04:30am - - - - - NNW 17 24 9 13 - - -
14/04:00am - - - - - NNW 19 24 10 13 - - -
14/03:30am - - - - - NNW 17 22 9 12 - - -
14/03:00am - - - - - NW 20 28 11 15 - - -
14/02:30am - - - - - NW 20 26 11 14 - - -

Latest Capital City Observations: Canberra | Sydney | Melbourne | Brisbane | Adelaide | Perth | Hobart | Darwin

Other formats

Comma delimited format used in spreadsheet applications
http://www.bom.gov.au/fwo/IDV60901/IDV60901.95864.axf

JavaScript Object Notation format (JSON) in row-major order
http://www.bom.gov.au/fwo/IDV60901/IDV60901.95864.json

Data quality

Most of these data are generated automatically and are frequently updated. Quality checks on data are not normally performed. It is possible for incorrect values to appear. Refer to information at About Latest Weather Observations and please check the disclaimer before using these data.